sensor_id;sensor_type;location;lat;lon;timestamp;pressure;altitude;pressure_sealevel;temperature;humidity
11017;BME280;54687;50.800;6.772;2023-02-20T00:00:08;61147.41;;;-144.06;64.10
11017;BME280;54687;50.800;6.772;2023-02-20T00:02:35;61201.91;;;-144.06;64.21
11017;BME280;54687;50.800;6.772;2023-02-20T00:05:02;61160.00;;;-144.06;64.31
11017;BME280;54687;50.800;6.772;2023-02-20T00:07:28;61197.72;;;-144.06;64.38
11017;BME280;54687;50.800;6.772;2023-02-20T00:09:56;61172.56;;;-144.06;64.25
11017;BME280;54687;50.800;6.772;2023-02-20T00:12:23;61174.66;;;-144.06;64.23
11017;BME280;54687;50.800;6.772;2023-02-20T00:14:50;61168.38;;;-144.06;64.20
11017;BME280;54687;50.800;6.772;2023-02-20T00:17:16;61180.97;;;-144.06;64.30
11017;BME280;54687;50.800;6.772;2023-02-20T00:19:44;61204.00;;;-144.06;64.24
11017;BME280;54687;50.800;6.772;2023-02-20T00:22:10;61222.88;;;-144.06;64.13
11017;BME280;54687;50.800;6.772;2023-02-20T00:24:37;61189.34;;;-144.06;64.19
11017;BME280;54687;50.800;6.772;2023-02-20T00:27:05;61176.75;;;-144.06;63.94
11017;BME280;54687;50.800;6.772;2023-02-20T00:29:31;61172.56;;;-144.06;64.21
11017;BME280;54687;50.800;6.772;2023-02-20T00:31:58;61206.09;;;-144.06;64.20
11017;BME280;54687;50.800;6.772;2023-02-20T00:34:27;61172.56;;;-144.06;64.35
11017;BME280;54687;50.800;6.772;2023-02-20T00:36:54;61170.47;;;-144.06;64.17
11017;BME280;54687;50.800;6.772;2023-02-20T00:39:20;61195.63;;;-144.06;64.07
11017;BME280;54687;50.800;6.772;2023-02-20T00:41:47;61160.00;;;-144.06;64.11
11017;BME280;54687;50.800;6.772;2023-02-20T00:44:15;61187.25;;;-144.06;64.12
11017;BME280;54687;50.800;6.772;2023-02-20T00:46:42;61237.56;;;-144.06;64.23
11017;BME280;54687;50.800;6.772;2023-02-20T00:49:09;61195.63;;;-144.06;63.92
11017;BME280;54687;50.800;6.772;2023-02-20T00:51:36;61168.38;;;-144.06;63.99
11017;BME280;54687;50.800;6.772;2023-02-20T00:54:02;61210.31;;;-144.06;64.13
11017;BME280;54687;50.800;6.772;2023-02-20T00:56:29;61222.88;;;-144.06;63.90
11017;BME280;54687;50.800;6.772;2023-02-20T00:58:56;61210.31;;;-144.06;64.13
11017;BME280;54687;50.800;6.772;2023-02-20T01:01:24;61193.53;;;-144.06;64.16
11017;BME280;54687;50.800;6.772;2023-02-20T01:03:50;61195.63;;;-144.06;63.89
11017;BME280;54687;50.800;6.772;2023-02-20T01:06:17;61185.16;;;-144.06;64.22
11017;BME280;54687;50.800;6.772;2023-02-20T01:08:43;61172.56;;;-144.06;63.93
11017;BME280;54687;50.800;6.772;2023-02-20T01:11:10;61208.22;;;-144.06;63.92
11017;BME280;54687;50.800;6.772;2023-02-20T01:13:37;61195.63;;;-144.06;64.08
11017;BME280;54687;50.800;6.772;2023-02-20T01:16:03;61227.06;;;-144.06;64.09
11017;BME280;54687;50.800;6.772;2023-02-20T01:18:31;61170.47;;;-144.06;64.24
11017;BME280;54687;50.800;6.772;2023-02-20T01:20:58;61170.47;;;-144.06;64.07
11017;BME280;54687;50.800;6.772;2023-02-20T01:23:24;61164.19;;;-144.06;63.51
11017;BME280;54687;50.800;6.772;2023-02-20T01:25:51;61258.53;;;-144.06;63.57
11017;BME280;54687;50.800;6.772;2023-02-20T01:28:18;61164.19;;;-144.06;63.35
11017;BME280;54687;50.800;6.772;2023-02-20T01:30:44;61168.38;;;-144.06;63.47
11017;BME280;54687;50.800;6.772;2023-02-20T01:33:11;61193.53;;;-144.06;63.29
11017;BME280;54687;50.800;6.772;2023-02-20T01:35:39;61214.50;;;-144.06;63.08
11017;BME280;54687;50.800;6.772;2023-02-20T01:38:05;61183.06;;;-144.06;62.63
11017;BME280;54687;50.800;6.772;2023-02-20T01:40:33;61193.53;;;-144.06;63.00
11017;BME280;54687;50.800;6.772;2023-02-20T01:43:01;61187.25;;;-144.06;63.23
11017;BME280;54687;50.800;6.772;2023-02-20T01:45:32;61204.00;;;-144.06;62.88
11017;BME280;54687;50.800;6.772;2023-02-20T01:47:59;61206.09;;;-144.06;62.83
11017;BME280;54687;50.800;6.772;2023-02-20T01:50:29;61189.34;;;-144.06;62.82
11017;BME280;54687;50.800;6.772;2023-02-20T01:53:00;61195.63;;;-144.06;62.94
11017;BME280;54687;50.800;6.772;2023-02-20T01:55:30;61214.50;;;-144.06;62.63
11017;BME280;54687;50.800;6.772;2023-02-20T01:58:02;61168.38;;;-144.06;62.76
11017;BME280;54687;50.800;6.772;2023-02-20T02:00:29;61218.69;;;-144.06;62.69
11017;BME280;54687;50.800;6.772;2023-02-20T02:02:58;61168.38;;;-144.06;62.79
11017;BME280;54687;50.800;6.772;2023-02-20T02:05:27;61162.09;;;-144.06;63.05
11017;BME280;54687;50.800;6.772;2023-02-20T02:07:57;61222.88;;;-144.06;62.97
11017;BME280;54687;50.800;6.772;2023-02-20T02:10:28;61206.09;;;-144.06;63.01
11017;BME280;54687;50.800;6.772;2023-02-20T02:12:56;61189.34;;;-144.06;63.07
11017;BME280;54687;50.800;6.772;2023-02-20T02:15:23;61189.34;;;-144.06;63.06
11017;BME280;54687;50.800;6.772;2023-02-20T02:18:02;61187.25;;;-144.06;62.81
11017;BME280;54687;50.800;6.772;2023-02-20T02:21:04;61208.22;;;-144.06;62.54
11017;BME280;54687;50.800;6.772;2023-02-20T02:24:13;61206.09;;;-144.06;62.79
11017;BME280;54687;50.800;6.772;2023-02-20T02:27:02;61164.19;;;-144.06;63.29
11017;BME280;54687;50.800;6.772;2023-02-20T02:29:44;61214.50;;;-144.06;63.13
11017;BME280;54687;50.800;6.772;2023-02-20T02:32:56;61143.22;;;-144.06;63.70
11017;BME280;54687;50.800;6.772;2023-02-20T02:38:43;61214.50;;;-144.06;64.05
11017;BME280;54687;50.800;6.772;2023-02-20T02:41:17;61214.50;;;-144.06;63.95
11017;BME280;54687;50.800;6.772;2023-02-20T02:43:49;61166.28;;;-144.06;63.94
11017;BME280;54687;50.800;6.772;2023-02-20T02:46:24;61172.56;;;-144.06;64.21
11017;BME280;54687;50.800;6.772;2023-02-20T02:48:56;61227.06;;;-144.06;64.00
11017;BME280;54687;50.800;6.772;2023-02-20T02:51:28;61210.31;;;-144.06;64.23
11017;BME280;54687;50.800;6.772;2023-02-20T02:54:07;61174.66;;;-144.06;64.36
11017;BME280;54687;50.800;6.772;2023-02-20T02:56:35;61189.34;;;-144.06;64.62
11017;BME280;54687;50.800;6.772;2023-02-20T02:59:04;61185.16;;;-144.06;64.77
11017;BME280;54687;50.800;6.772;2023-02-20T03:01:35;61248.03;;;-144.06;64.85
11017;BME280;54687;50.800;6.772;2023-02-20T03:04:05;61197.72;;;-144.06;65.02
11017;BME280;54687;50.800;6.772;2023-02-20T03:06:33;61178.84;;;-144.06;65.09
11017;BME280;54687;50.800;6.772;2023-02-20T03:09:07;61166.28;;;-144.06;65.18
11017;BME280;54687;50.800;6.772;2023-02-20T03:11:37;61185.16;;;-144.06;64.87
11017;BME280;54687;50.800;6.772;2023-02-20T03:14:08;61214.50;;;-144.06;65.19
11017;BME280;54687;50.800;6.772;2023-02-20T03:16:56;61191.44;;;-144.06;65.43
11017;BME280;54687;50.800;6.772;2023-02-20T03:19:26;61222.88;;;-144.06;65.44
11017;BME280;54687;50.800;6.772;2023-02-20T03:21:56;61220.78;;;-144.06;65.71
11017;BME280;54687;50.800;6.772;2023-02-20T03:24:27;61206.09;;;-144.06;65.80
11017;BME280;54687;50.800;6.772;2023-02-20T03:26:56;61243.84;;;-144.06;65.52
11017;BME280;54687;50.800;6.772;2023-02-20T03:29:26;61162.09;;;-144.06;65.67
11017;BME280;54687;50.800;6.772;2023-02-20T03:31:59;61199.81;;;-144.06;65.43
11017;BME280;54687;50.800;6.772;2023-02-20T03:34:45;61189.34;;;-144.06;65.39
11017;BME280;54687;50.800;6.772;2023-02-20T03:37:33;61218.69;;;-144.06;65.78
11017;BME280;54687;50.800;6.772;2023-02-20T03:40:21;61185.16;;;-144.06;66.00
11017;BME280;54687;50.800;6.772;2023-02-20T03:43:11;61235.47;;;-144.06;65.88
11017;BME280;54687;50.800;6.772;2023-02-20T03:45:49;61191.44;;;-144.06;66.03
11017;BME280;54687;50.800;6.772;2023-02-20T03:48:23;61187.25;;;-144.06;66.17
11017;BME280;54687;50.800;6.772;2023-02-20T03:50:52;61185.16;;;-144.06;66.14
11017;BME280;54687;50.800;6.772;2023-02-20T03:53:38;61197.72;;;-144.06;65.97
11017;BME280;54687;50.800;6.772;2023-02-20T03:56:10;61172.56;;;-144.06;65.95
11017;BME280;54687;50.800;6.772;2023-02-20T03:58:41;61155.81;;;-144.06;65.97
11017;BME280;54687;50.800;6.772;2023-02-20T04:01:13;61193.53;;;-144.06;65.91
11017;BME280;54687;50.800;6.772;2023-02-20T04:03:44;61222.88;;;-144.06;65.97
11017;BME280;54687;50.800;6.772;2023-02-20T04:06:13;61199.81;;;-144.06;66.14
11017;BME280;54687;50.800;6.772;2023-02-20T04:08:43;61172.56;;;-144.06;66.01
11017;BME280;54687;50.800;6.772;2023-02-20T04:11:16;61208.22;;;-144.06;65.58
11017;BME280;54687;50.800;6.772;2023-02-20T04:13:46;61193.53;;;-144.06;65.31
11017;BME280;54687;50.800;6.772;2023-02-20T04:16:13;61231.25;;;-144.06;65.41
11017;BME280;54687;50.800;6.772;2023-02-20T04:18:40;61201.91;;;-144.06;65.21
11017;BME280;54687;50.800;6.772;2023-02-20T04:21:10;61197.72;;;-144.06;65.16
11017;BME280;54687;50.800;6.772;2023-02-20T04:23:44;61172.56;;;-144.06;65.09
11017;BME280;54687;50.800;6.772;2023-02-20T04:26:16;61210.31;;;-144.06;65.24
11017;BME280;54687;50.800;6.772;2023-02-20T04:28:44;61214.50;;;-144.06;65.53
11017;BME280;54687;50.800;6.772;2023-02-20T04:31:12;61212.41;;;-144.06;65.38
11017;BME280;54687;50.800;6.772;2023-02-20T04:33:40;61151.59;;;-144.06;65.39
11017;BME280;54687;50.800;6.772;2023-02-20T04:36:08;61185.16;;;-144.06;65.39
11017;BME280;54687;50.800;6.772;2023-02-20T04:38:35;61218.69;;;-144.06;65.31
11017;BME280;54687;50.800;6.772;2023-02-20T04:41:01;61195.63;;;-144.06;65.06
11017;BME280;54687;50.800;6.772;2023-02-20T04:43:29;61218.69;;;-144.06;65.32
11017;BME280;54687;50.800;6.772;2023-02-20T04:45:56;61204.00;;;-144.06;65.41
11017;BME280;54687;50.800;6.772;2023-02-20T04:48:22;61218.69;;;-144.06;65.27
11017;BME280;54687;50.800;6.772;2023-02-20T04:50:49;61164.19;;;-144.06;65.46
11017;BME280;54687;50.800;6.772;2023-02-20T04:53:16;61210.31;;;-144.06;65.58
11017;BME280;54687;50.800;6.772;2023-02-20T04:55:42;61222.88;;;-144.06;65.52
11017;BME280;54687;50.800;6.772;2023-02-20T04:58:09;61185.16;;;-144.06;65.69
11017;BME280;54687;50.800;6.772;2023-02-20T05:00:37;61193.53;;;-144.06;65.73
11017;BME280;54687;50.800;6.772;2023-02-20T05:03:04;61210.31;;;-144.06;66.26
11017;BME280;54687;50.800;6.772;2023-02-20T05:05:31;61191.44;;;-144.06;65.84
11017;BME280;54687;50.800;6.772;2023-02-20T05:07:58;61164.19;;;-144.06;66.02
11017;BME280;54687;50.800;6.772;2023-02-20T05:10:27;61193.53;;;-144.06;66.02
11017;BME280;54687;50.800;6.772;2023-02-20T05:12:54;61210.31;;;-144.06;65.82
11017;BME280;54687;50.800;6.772;2023-02-20T05:15:21;61199.81;;;-144.06;65.95
11017;BME280;54687;50.800;6.772;2023-02-20T05:17:49;61214.50;;;-144.06;65.96
11017;BME280;54687;50.800;6.772;2023-02-20T05:20:17;61166.28;;;-144.06;66.27
11017;BME280;54687;50.800;6.772;2023-02-20T05:22:44;61189.34;;;-144.06;66.24
11017;BME280;54687;50.800;6.772;2023-02-20T05:25:10;61197.72;;;-144.06;65.82
11017;BME280;54687;50.800;6.772;2023-02-20T05:27:38;61201.91;;;-144.06;66.04
11017;BME280;54687;50.800;6.772;2023-02-20T05:30:06;61168.38;;;-144.06;65.99
11017;BME280;54687;50.800;6.772;2023-02-20T05:32:33;61206.09;;;-144.06;65.75
11017;BME280;54687;50.800;6.772;2023-02-20T05:35:00;61235.47;;;-144.06;65.80
11017;BME280;54687;50.800;6.772;2023-02-20T05:37:27;61180.97;;;-144.06;66.14
11017;BME280;54687;50.800;6.772;2023-02-20T05:39:54;61206.09;;;-144.06;65.90
11017;BME280;54687;50.800;6.772;2023-02-20T05:42:20;61201.91;;;-144.06;65.71
11017;BME280;54687;50.800;6.772;2023-02-20T05:44:47;61254.31;;;-144.06;65.61
11017;BME280;54687;50.800;6.772;2023-02-20T05:47:15;61191.44;;;-144.06;66.02
11017;BME280;54687;50.800;6.772;2023-02-20T05:49:41;61195.63;;;-144.06;66.39
11017;BME280;54687;50.800;6.772;2023-02-20T05:52:11;61243.84;;;-144.06;65.95
11017;BME280;54687;50.800;6.772;2023-02-20T05:54:38;61155.81;;;-144.06;65.92
11017;BME280;54687;50.800;6.772;2023-02-20T05:57:05;61176.75;;;-144.06;65.65
11017;BME280;54687;50.800;6.772;2023-02-20T05:59:32;61224.97;;;-144.06;65.51
11017;BME280;54687;50.800;6.772;2023-02-20T06:01:59;61189.34;;;-144.06;65.21
11017;BME280;54687;50.800;6.772;2023-02-20T06:04:26;61172.56;;;-144.06;65.10
11017;BME280;54687;50.800;6.772;2023-02-20T06:06:53;61191.44;;;-144.06;65.24
11017;BME280;54687;50.800;6.772;2023-02-20T06:09:21;61206.09;;;-144.06;65.02
11017;BME280;54687;50.800;6.772;2023-02-20T06:11:48;61197.72;;;-144.06;64.67
11017;BME280;54687;50.800;6.772;2023-02-20T06:14:16;61164.19;;;-144.06;64.74
11017;BME280;54687;50.800;6.772;2023-02-20T06:16:44;61180.97;;;-144.06;64.89
11017;BME280;54687;50.800;6.772;2023-02-20T06:19:11;61160.00;;;-144.06;64.72
11017;BME280;54687;50.800;6.772;2023-02-20T06:21:37;61185.16;;;-144.06;64.68
11017;BME280;54687;50.800;6.772;2023-02-20T06:24:05;61141.13;;;-144.06;64.69
11017;BME280;54687;50.800;6.772;2023-02-20T06:26:38;61212.41;;;-144.06;65.02
11017;BME280;54687;50.800;6.772;2023-02-20T06:29:04;61185.16;;;-144.06;64.94
11017;BME280;54687;50.800;6.772;2023-02-20T06:31:31;61197.72;;;-144.06;64.93
11017;BME280;54687;50.800;6.772;2023-02-20T06:33:57;61180.97;;;-144.06;64.73
11017;BME280;54687;50.800;6.772;2023-02-20T06:36:26;61189.34;;;-144.06;64.80
11017;BME280;54687;50.800;6.772;2023-02-20T06:38:53;61206.09;;;-144.06;64.45
11017;BME280;54687;50.800;6.772;2023-02-20T06:41:20;61189.34;;;-144.06;64.38
11017;BME280;54687;50.800;6.772;2023-02-20T06:43:48;61176.75;;;-144.06;63.80
11017;BME280;54687;50.800;6.772;2023-02-20T06:46:14;61206.09;;;-144.06;63.57
11017;BME280;54687;50.800;6.772;2023-02-20T06:48:45;61197.72;;;-144.06;63.59
11017;BME280;54687;50.800;6.772;2023-02-20T06:51:11;61191.44;;;-144.06;63.13
11017;BME280;54687;50.800;6.772;2023-02-20T06:53:38;61201.91;;;-144.06;63.05
11017;BME280;54687;50.800;6.772;2023-02-20T06:56:07;61195.63;;;-144.06;63.00
11017;BME280;54687;50.800;6.772;2023-02-20T06:58:35;61172.56;;;-144.06;63.03
11017;BME280;54687;50.800;6.772;2023-02-20T07:01:03;61172.56;;;-144.06;62.69
11017;BME280;54687;50.800;6.772;2023-02-20T07:03:30;61204.00;;;-144.06;62.77
11017;BME280;54687;50.800;6.772;2023-02-20T07:05:56;61201.91;;;-144.06;62.59
11017;BME280;54687;50.800;6.772;2023-02-20T07:08:23;61185.16;;;-144.06;62.48
11017;BME280;54687;50.800;6.772;2023-02-20T07:10:49;61206.09;;;-144.06;62.44
11017;BME280;54687;50.800;6.772;2023-02-20T07:13:19;61185.16;;;-144.06;62.25
11017;BME280;54687;50.800;6.772;2023-02-20T07:15:46;61155.81;;;-144.06;61.61
11017;BME280;54687;50.800;6.772;2023-02-20T07:18:14;61160.00;;;-144.06;61.68
11017;BME280;54687;50.800;6.772;2023-02-20T07:20:41;61206.09;;;-144.06;61.44
11017;BME280;54687;50.800;6.772;2023-02-20T07:23:08;61174.66;;;-144.06;61.66
11017;BME280;54687;50.800;6.772;2023-02-20T07:25:34;61149.50;;;-144.06;61.09
11017;BME280;54687;50.800;6.772;2023-02-20T07:28:01;61151.59;;;-144.06;60.75
11017;BME280;54687;50.800;6.772;2023-02-20T07:30:28;61160.00;;;-144.06;60.43
11017;BME280;54687;50.800;6.772;2023-02-20T07:32:54;61180.97;;;-144.06;60.25
11017;BME280;54687;50.800;6.772;2023-02-20T07:35:22;61166.28;;;-144.06;59.69
11017;BME280;54687;50.800;6.772;2023-02-20T07:37:49;61222.88;;;-144.06;59.39
11017;BME280;54687;50.800;6.772;2023-02-20T07:40:15;61216.59;;;-144.06;59.42
11017;BME280;54687;50.800;6.772;2023-02-20T07:42:42;61187.25;;;-144.06;58.98
11017;BME280;54687;50.800;6.772;2023-02-20T07:45:09;61187.25;;;-144.06;58.93
11017;BME280;54687;50.800;6.772;2023-02-20T07:47:36;61193.53;;;-144.06;58.91
11017;BME280;54687;50.800;6.772;2023-02-20T07:50:03;61197.72;;;-144.06;58.62
11017;BME280;54687;50.800;6.772;2023-02-20T07:52:31;61189.34;;;-144.06;58.52
11017;BME280;54687;50.800;6.772;2023-02-20T07:54:58;61180.97;;;-144.06;58.29
11017;BME280;54687;50.800;6.772;2023-02-20T07:57:24;61197.72;;;-144.06;58.09
11017;BME280;54687;50.800;6.772;2023-02-20T07:59:51;61256.41;;;-144.06;57.88
11017;BME280;54687;50.800;6.772;2023-02-20T08:02:19;61164.19;;;-144.06;57.76
11017;BME280;54687;50.800;6.772;2023-02-20T08:04:45;61128.53;;;-144.06;58.00
11017;BME280;54687;50.800;6.772;2023-02-20T08:07:12;61174.66;;;-144.06;57.64
11017;BME280;54687;50.800;6.772;2023-02-20T08:09:40;61164.19;;;-144.06;57.50
11017;BME280;54687;50.800;6.772;2023-02-20T08:12:07;61193.53;;;-144.06;57.56
11017;BME280;54687;50.800;6.772;2023-02-20T08:14:33;61193.53;;;-144.06;57.51
11017;BME280;54687;50.800;6.772;2023-02-20T08:17:00;61176.75;;;-144.06;56.95
11017;BME280;54687;50.800;6.772;2023-02-20T08:19:27;61160.00;;;-144.06;57.02
11017;BME280;54687;50.800;6.772;2023-02-20T08:21:53;61172.56;;;-144.06;56.85
11017;BME280;54687;50.800;6.772;2023-02-20T08:24:20;61193.53;;;-144.06;57.28
11017;BME280;54687;50.800;6.772;2023-02-20T08:26:48;61187.25;;;-144.06;57.54
11017;BME280;54687;50.800;6.772;2023-02-20T08:29:15;61168.38;;;-144.06;57.95
11017;BME280;54687;50.800;6.772;2023-02-20T08:31:42;61185.16;;;-144.06;58.36
11017;BME280;54687;50.800;6.772;2023-02-20T08:34:08;61164.19;;;-144.06;58.64
11017;BME280;54687;50.800;6.772;2023-02-20T08:36:35;61172.56;;;-144.06;58.83
11017;BME280;54687;50.800;6.772;2023-02-20T08:39:02;61172.56;;;-144.06;59.20
11017;BME280;54687;50.800;6.772;2023-02-20T08:41:28;61136.94;;;-144.06;59.32
11017;BME280;54687;50.800;6.772;2023-02-20T08:43:57;61178.84;;;-144.06;59.66
11017;BME280;54687;50.800;6.772;2023-02-20T08:46:24;61170.47;;;-144.06;59.89
11017;BME280;54687;50.800;6.772;2023-02-20T08:48:50;61113.88;;;-144.06;59.84
11017;BME280;54687;50.800;6.772;2023-02-20T08:51:18;61174.66;;;-144.06;60.09
11017;BME280;54687;50.800;6.772;2023-02-20T08:53:45;61151.59;;;-144.06;60.32
11017;BME280;54687;50.800;6.772;2023-02-20T08:56:12;61189.34;;;-144.06;60.56
11017;BME280;54687;50.800;6.772;2023-02-20T08:58:38;61195.63;;;-144.06;60.86
11017;BME280;54687;50.800;6.772;2023-02-20T09:01:06;61143.22;;;-144.06;60.70
11017;BME280;54687;50.800;6.772;2023-02-20T09:03:33;61164.19;;;-144.06;61.02
11017;BME280;54687;50.800;6.772;2023-02-20T09:06:03;61180.97;;;-144.06;60.95
11017;BME280;54687;50.800;6.772;2023-02-20T09:08:30;61172.56;;;-144.06;60.82
11017;BME280;54687;50.800;6.772;2023-02-20T09:10:56;61147.41;;;-144.06;60.87
11017;BME280;54687;50.800;6.772;2023-02-20T09:13:23;61172.56;;;-144.06;60.78
11017;BME280;54687;50.800;6.772;2023-02-20T09:15:49;61155.81;;;-144.06;60.64
11017;BME280;54687;50.800;6.772;2023-02-20T09:18:17;61136.94;;;-144.06;60.43
11017;BME280;54687;50.800;6.772;2023-02-20T09:20:44;61164.19;;;-144.06;59.81
11017;BME280;54687;50.800;6.772;2023-02-20T09:23:11;61164.19;;;-144.06;59.81
11017;BME280;54687;50.800;6.772;2023-02-20T09:25:38;61172.56;;;-144.06;59.44
11017;BME280;54687;50.800;6.772;2023-02-20T09:28:05;61168.38;;;-144.06;59.52
11017;BME280;54687;50.800;6.772;2023-02-20T09:30:33;61157.91;;;-144.06;58.96
11017;BME280;54687;50.800;6.772;2023-02-20T09:32:59;61143.22;;;-144.06;58.71
11017;BME280;54687;50.800;6.772;2023-02-20T09:35:29;61176.75;;;-144.06;58.38
11017;BME280;54687;50.800;6.772;2023-02-20T09:37:56;61155.81;;;-144.06;57.76
11017;BME280;54687;50.800;6.772;2023-02-20T09:40:25;61170.47;;;-144.06;57.10
11017;BME280;54687;50.800;6.772;2023-02-20T09:43:13;61130.66;;;-144.06;57.11
11017;BME280;54687;50.800;6.772;2023-02-20T09:45:47;61147.41;;;-144.06;57.03
11017;BME280;54687;50.800;6.772;2023-02-20T09:48:27;61172.56;;;-144.06;56.41
11017;BME280;54687;50.800;6.772;2023-02-20T09:51:01;61199.81;;;-144.06;56.30
11017;BME280;54687;50.800;6.772;2023-02-20T09:53:31;61160.00;;;-144.06;56.35
11017;BME280;54687;50.800;6.772;2023-02-20T09:56:00;61139.03;;;-144.06;56.17
11017;BME280;54687;50.800;6.772;2023-02-20T09:58:38;61168.38;;;-144.06;56.26
11017;BME280;54687;50.800;6.772;2023-02-20T10:01:08;61113.88;;;-144.06;55.28
11017;BME280;54687;50.800;6.772;2023-02-20T10:03:48;61139.03;;;-144.06;55.24
11017;BME280;54687;50.800;6.772;2023-02-20T10:06:21;61160.00;;;-144.06;55.64
11017;BME280;54687;50.800;6.772;2023-02-20T10:08:50;61151.59;;;-144.06;55.40
11017;BME280;54687;50.800;6.772;2023-02-20T10:11:35;61130.66;;;-144.06;55.22
11017;BME280;54687;50.800;6.772;2023-02-20T10:14:29;61153.69;;;-144.06;54.56
11017;BME280;54687;50.800;6.772;2023-02-20T10:17:04;61147.41;;;-144.06;54.83
11017;BME280;54687;50.800;6.772;2023-02-20T10:19:43;61151.59;;;-144.06;54.13
11017;BME280;54687;50.800;6.772;2023-02-20T10:22:19;61155.81;;;-144.06;54.45
11017;BME280;54687;50.800;6.772;2023-02-20T10:24:55;61147.41;;;-144.06;54.12
11017;BME280;54687;50.800;6.772;2023-02-20T10:27:32;61139.03;;;-144.06;54.39
11017;BME280;54687;50.800;6.772;2023-02-20T10:30:02;61126.44;;;-144.06;54.02
11017;BME280;54687;50.800;6.772;2023-02-20T10:32:35;61151.59;;;-144.06;54.07
11017;BME280;54687;50.800;6.772;2023-02-20T10:35:08;61109.69;;;-144.06;54.06
11017;BME280;54687;50.800;6.772;2023-02-20T10:37:39;61151.59;;;-144.06;53.15
11017;BME280;54687;50.800;6.772;2023-02-20T10:40:16;61176.75;;;-144.06;53.10
11017;BME280;54687;50.800;6.772;2023-02-20T10:42:52;61134.84;;;-144.06;53.25
11017;BME280;54687;50.800;6.772;2023-02-20T10:45:25;61126.44;;;-144.06;53.51
11017;BME280;54687;50.800;6.772;2023-02-20T10:48:00;61164.19;;;-144.06;53.54
11017;BME280;54687;50.800;6.772;2023-02-20T10:50:35;61120.16;;;-144.06;53.45
11017;BME280;54687;50.800;6.772;2023-02-20T10:53:15;61151.59;;;-144.06;53.18
11017;BME280;54687;50.800;6.772;2023-02-20T10:55:48;61076.13;;;-144.06;53.16
11017;BME280;54687;50.800;6.772;2023-02-20T10:58:20;61109.69;;;-144.06;53.16
11017;BME280;54687;50.800;6.772;2023-02-20T11:00:50;61107.59;;;-144.06;53.27
11017;BME280;54687;50.800;6.772;2023-02-20T11:03:23;61130.66;;;-144.06;53.14
11017;BME280;54687;50.800;6.772;2023-02-20T11:05:54;61122.25;;;-144.06;52.58
11017;BME280;54687;50.800;6.772;2023-02-20T11:08:22;61155.81;;;-144.06;52.84
11017;BME280;54687;50.800;6.772;2023-02-20T11:10:53;61105.50;;;-144.06;52.68
11017;BME280;54687;50.800;6.772;2023-02-20T11:13:22;61105.50;;;-144.06;52.37
11017;BME280;54687;50.800;6.772;2023-02-20T11:15:52;61145.31;;;-144.06;52.79
11017;BME280;54687;50.800;6.772;2023-02-20T11:18:23;61149.50;;;-144.06;52.60
11017;BME280;54687;50.800;6.772;2023-02-20T11:20:52;61067.75;;;-144.06;52.98
11017;BME280;54687;50.800;6.772;2023-02-20T11:23:39;61118.06;;;-144.06;53.07
11017;BME280;54687;50.800;6.772;2023-02-20T11:26:25;61126.44;;;-144.06;52.49
11017;BME280;54687;50.800;6.772;2023-02-20T11:28:56;61134.84;;;-144.06;52.83
11017;BME280;54687;50.800;6.772;2023-02-20T11:31:24;61115.97;;;-144.06;52.87
11017;BME280;54687;50.800;6.772;2023-02-20T11:33:53;61107.59;;;-144.06;52.75
11017;BME280;54687;50.800;6.772;2023-02-20T11:36:22;61120.16;;;-144.06;52.82
11017;BME280;54687;50.800;6.772;2023-02-20T11:38:58;61097.09;;;-144.06;52.22
11017;BME280;54687;50.800;6.772;2023-02-20T11:41:28;61124.34;;;-144.06;52.26
11017;BME280;54687;50.800;6.772;2023-02-20T11:44:21;61113.88;;;-144.06;52.50
11017;BME280;54687;50.800;6.772;2023-02-20T11:47:16;61092.91;;;-144.06;52.46
11017;BME280;54687;50.800;6.772;2023-02-20T11:49:43;61080.34;;;-144.06;52.37
11017;BME280;54687;50.800;6.772;2023-02-20T11:52:16;61115.97;;;-144.06;52.09
11017;BME280;54687;50.800;6.772;2023-02-20T11:54:44;61105.50;;;-144.06;52.30
11017;BME280;54687;50.800;6.772;2023-02-20T11:57:20;61090.81;;;-144.06;52.12
11017;BME280;54687;50.800;6.772;2023-02-20T11:59:50;61080.34;;;-144.06;52.01
11017;BME280;54687;50.800;6.772;2023-02-20T12:02:23;61164.19;;;-144.06;52.19
11017;BME280;54687;50.800;6.772;2023-02-20T12:05:03;61122.25;;;-144.06;51.97
11017;BME280;54687;50.800;6.772;2023-02-20T12:07:34;61065.66;;;-144.06;52.37
11017;BME280;54687;50.800;6.772;2023-02-20T12:10:10;61055.19;;;-144.06;52.19
11017;BME280;54687;50.800;6.772;2023-02-20T12:12:41;61134.84;;;-144.06;52.47
11017;BME280;54687;50.800;6.772;2023-02-20T12:15:12;61076.13;;;-144.06;52.68
11017;BME280;54687;50.800;6.772;2023-02-20T12:17:47;61130.66;;;-144.06;52.31
11017;BME280;54687;50.800;6.772;2023-02-20T12:20:19;61111.78;;;-144.06;52.21
11017;BME280;54687;50.800;6.772;2023-02-20T12:22:53;61092.91;;;-144.06;51.95
11017;BME280;54687;50.800;6.772;2023-02-20T12:25:26;61063.56;;;-144.06;52.29
11017;BME280;54687;50.800;6.772;2023-02-20T12:28:05;61069.84;;;-144.06;52.25
11017;BME280;54687;50.800;6.772;2023-02-20T12:30:47;61080.34;;;-144.06;52.39
11017;BME280;54687;50.800;6.772;2023-02-20T12:33:39;61059.38;;;-144.06;52.40
11017;BME280;54687;50.800;6.772;2023-02-20T12:36:26;61074.03;;;-144.06;52.41
11017;BME280;54687;50.800;6.772;2023-02-20T12:38:57;61097.09;;;-144.06;52.42
11017;BME280;54687;50.800;6.772;2023-02-20T12:41:35;61134.84;;;-144.06;52.68
11017;BME280;54687;50.800;6.772;2023-02-20T12:44:23;61105.50;;;-144.06;52.73
11017;BME280;54687;50.800;6.772;2023-02-20T12:47:00;61128.53;;;-144.06;52.44
11017;BME280;54687;50.800;6.772;2023-02-20T12:49:46;61095.00;;;-144.06;52.20
11017;BME280;54687;50.800;6.772;2023-02-20T12:52:29;61120.16;;;-144.06;52.31
11017;BME280;54687;50.800;6.772;2023-02-20T12:55:07;61092.91;;;-144.06;52.54
11017;BME280;54687;50.800;6.772;2023-02-20T12:57:45;61088.72;;;-144.06;51.93
11017;BME280;54687;50.800;6.772;2023-02-20T13:00:22;61107.59;;;-144.06;52.21